sensor_id;sensor_type;location;lat;lon;timestamp;pressure;altitude;pressure_sealevel;temperature;humidity
11643;BME280;5877;50.930;6.918;2023-03-15T00:00:46;100481.72;;;1.45;71.32
11643;BME280;5877;50.930;6.918;2023-03-15T00:05:41;100660.31;;;2.46;72.42
11643;BME280;5877;50.930;6.918;2023-03-15T00:10:33;100473.13;;;1.37;71.91
11643;BME280;5877;50.930;6.918;2023-03-15T00:15:25;100562.06;;;1.86;71.50
11643;BME280;5877;50.930;6.918;2023-03-15T00:20:16;100619.16;;;2.26;71.22
11643;BME280;5877;50.930;6.918;2023-03-15T00:25:10;100631.19;;;2.44;71.25
11643;BME280;5877;50.930;6.918;2023-03-15T00:30:03;100427.00;;;1.24;71.24
11643;BME280;5877;50.930;6.918;2023-03-15T00:34:55;100583.88;;;2.25;71.05
11643;BME280;5877;50.930;6.918;2023-03-15T00:39:47;100592.50;;;2.42;71.13
11643;BME280;5877;50.930;6.918;2023-03-15T00:44:39;100554.25;;;2.20;70.56
11643;BME280;5877;50.930;6.918;2023-03-15T00:49:31;100681.28;;;2.93;70.51
11643;BME280;5877;50.930;6.918;2023-03-15T00:54:25;100467.53;;;1.57;71.22
11643;BME280;5877;50.930;6.918;2023-03-15T00:59:17;100631.69;;;2.72;71.66
11643;BME280;5877;50.930;6.918;2023-03-15T01:04:12;100638.69;;;2.96;71.04
11643;BME280;5877;50.930;6.918;2023-03-15T01:09:03;100670.94;;;3.25;71.23
11643;BME280;5877;50.930;6.918;2023-03-15T01:13:57;100650.19;;;3.17;71.97
11643;BME280;5877;50.930;6.918;2023-03-15T01:18:50;100629.28;;;3.11;72.70
11643;BME280;5877;50.930;6.918;2023-03-15T01:23:43;100708.06;;;3.58;72.93
11643;BME280;5877;50.930;6.918;2023-03-15T01:28:36;100621.19;;;2.98;73.30
11643;BME280;5877;50.930;6.918;2023-03-15T01:33:27;100563.03;;;2.43;73.72
11643;BME280;5877;50.930;6.918;2023-03-15T01:38:19;100671.91;;;3.08;76.86
11643;BME280;5877;50.930;6.918;2023-03-15T01:43:17;100692.31;;;3.03;78.98
11643;BME280;5877;50.930;6.918;2023-03-15T01:48:09;100558.28;;;2.14;79.31
11643;BME280;5877;50.930;6.918;2023-03-15T01:53:02;100645.78;;;2.69;81.29
11643;BME280;5877;50.930;6.918;2023-03-15T01:57:57;100663.13;;;2.77;80.28
11643;BME280;5877;50.930;6.918;2023-03-15T02:03:05;100701.22;;;2.92;80.62
11643;BME280;5877;50.930;6.918;2023-03-15T02:08:03;100694.56;;;2.90;80.85
11643;BME280;5877;50.930;6.918;2023-03-15T02:12:58;100753.63;;;3.29;81.36
11643;BME280;5877;50.930;6.918;2023-03-15T02:17:50;100719.84;;;2.96;79.94
11643;BME280;5877;50.930;6.918;2023-03-15T02:23:04;100697.09;;;2.66;79.96
11643;BME280;5877;50.930;6.918;2023-03-15T02:27:57;100591.72;;;1.66;81.28
11643;BME280;5877;50.930;6.918;2023-03-15T02:32:49;100741.44;;;2.46;80.77
11643;BME280;5877;50.930;6.918;2023-03-15T02:37:41;100539.53;;;1.10;79.73
11643;BME280;5877;50.930;6.918;2023-03-15T02:42:36;100697.94;;;1.90;80.38
11643;BME280;5877;50.930;6.918;2023-03-15T02:47:31;100476.91;;;0.64;80.31
11643;BME280;5877;50.930;6.918;2023-03-15T02:52:24;100664.81;;;1.68;81.24
11643;BME280;5877;50.930;6.918;2023-03-15T02:57:18;100739.03;;;2.19;80.28
11643;BME280;5877;50.930;6.918;2023-03-15T03:02:11;100576.91;;;1.16;79.73
11643;BME280;5877;50.930;6.918;2023-03-15T03:07:05;100733.78;;;2.03;80.42
11643;BME280;5877;50.930;6.918;2023-03-15T03:12:05;100274.97;;;-1.14;81.57
11643;BME280;5877;50.930;6.918;2023-03-15T03:16:57;100773.66;;;1.92;82.32
11643;BME280;5877;50.930;6.918;2023-03-15T03:21:49;100666.63;;;1.23;82.26
11643;BME280;5877;50.930;6.918;2023-03-15T03:26:43;100775.22;;;1.85;82.50
11643;BME280;5877;50.930;6.918;2023-03-15T03:31:37;100605.50;;;0.61;82.67
11643;BME280;5877;50.930;6.918;2023-03-15T03:36:30;100747.09;;;1.64;82.71
11643;BME280;5877;50.930;6.918;2023-03-15T03:41:21;100807.06;;;2.03;81.78
11643;BME280;5877;50.930;6.918;2023-03-15T03:46:13;100708.56;;;1.35;82.08
11643;BME280;5877;50.930;6.918;2023-03-15T03:51:10;100722.13;;;1.55;82.04
11643;BME280;5877;50.930;6.918;2023-03-15T03:56:06;100813.06;;;2.04;82.04
11643;BME280;5877;50.930;6.918;2023-03-15T04:01:00;100490.09;;;0.00;81.88
11643;BME280;5877;50.930;6.918;2023-03-15T04:05:57;100441.03;;;-0.36;81.82
11643;BME280;5877;50.930;6.918;2023-03-15T04:10:55;100811.53;;;2.19;82.13
11643;BME280;5877;50.930;6.918;2023-03-15T04:15:50;100768.50;;;1.92;81.72
11643;BME280;5877;50.930;6.918;2023-03-15T04:20:42;100695.09;;;1.49;81.24
11643;BME280;5877;50.930;6.918;2023-03-15T04:25:39;100825.66;;;2.50;80.95
11643;BME280;5877;50.930;6.918;2023-03-15T04:30:47;100704.66;;;1.75;80.34
11643;BME280;5877;50.930;6.918;2023-03-15T04:36:18;100799.03;;;2.40;80.76
11643;BME280;5877;50.930;6.918;2023-03-15T04:41:31;100843.22;;;2.73;80.45
11643;BME280;5877;50.930;6.918;2023-03-15T04:46:25;100848.53;;;2.63;80.53
11643;BME280;5877;50.930;6.918;2023-03-15T04:51:33;100788.28;;;2.27;79.81
11643;BME280;5877;50.930;6.918;2023-03-15T04:56:37;100815.91;;;2.18;79.48
11643;BME280;5877;50.930;6.918;2023-03-15T05:01:32;100877.56;;;2.41;79.65
11643;BME280;5877;50.930;6.918;2023-03-15T05:06:44;100848.22;;;2.32;79.91
11643;BME280;5877;50.930;6.918;2023-03-15T05:12:14;100684.47;;;1.35;80.09
11643;BME280;5877;50.930;6.918;2023-03-15T05:17:35;100712.63;;;1.38;80.32
11643;BME280;5877;50.930;6.918;2023-03-15T05:22:45;100693.88;;;1.18;81.18
11643;BME280;5877;50.930;6.918;2023-03-15T05:27:40;100757.00;;;1.69;80.84
11643;BME280;5877;50.930;6.918;2023-03-15T05:32:54;100801.78;;;2.13;80.33
11643;BME280;5877;50.930;6.918;2023-03-15T05:38:16;100802.84;;;2.02;79.77
11643;BME280;5877;50.930;6.918;2023-03-15T06:51:41;100879.25;;;2.06;79.40
11643;BME280;5877;50.930;6.918;2023-03-15T06:56:35;101013.38;;;3.08;78.68
11643;BME280;5877;50.930;6.918;2023-03-15T07:01:27;101028.53;;;3.20;77.54
11643;BME280;5877;50.930;6.918;2023-03-15T07:06:19;101055.19;;;3.65;77.82
11643;BME280;5877;50.930;6.918;2023-03-15T07:11:12;100906.47;;;2.88;77.15
11643;BME280;5877;50.930;6.918;2023-03-15T07:16:03;101018.50;;;3.59;75.53
11643;BME280;5877;50.930;6.918;2023-03-15T07:20:57;100980.78;;;3.39;75.25
11643;BME280;5877;50.930;6.918;2023-03-15T07:25:50;101032.72;;;3.47;75.82
11643;BME280;5877;50.930;6.918;2023-03-15T07:31:06;101053.31;;;3.83;74.74
11643;BME280;5877;50.930;6.918;2023-03-15T07:35:57;100961.94;;;3.29;74.86
11643;BME280;5877;50.930;6.918;2023-03-15T07:43:47;100999.34;;;3.52;74.22
11643;BME280;5877;50.930;6.918;2023-03-15T07:48:41;101109.53;;;4.00;75.02
11643;BME280;5877;50.930;6.918;2023-03-15T07:53:33;101145.63;;;4.11;75.59
11643;BME280;5877;50.930;6.918;2023-03-15T07:58:25;101049.78;;;3.24;75.92
11643;BME280;5877;50.930;6.918;2023-03-15T08:03:17;101161.19;;;3.77;76.44
11643;BME280;5877;50.930;6.918;2023-03-15T08:08:08;101062.75;;;2.98;77.20
11643;BME280;5877;50.930;6.918;2023-03-15T08:13:00;101143.94;;;3.42;76.49
11643;BME280;5877;50.930;6.918;2023-03-15T08:17:52;101187.31;;;3.76;76.30
11643;BME280;5877;50.930;6.918;2023-03-15T08:22:46;101138.97;;;3.75;76.10
11643;BME280;5877;50.930;6.918;2023-03-15T08:27:38;101032.63;;;3.31;75.23
11643;BME280;5877;50.930;6.918;2023-03-15T08:32:31;101199.66;;;4.42;74.20
11643;BME280;5877;50.930;6.918;2023-03-15T08:37:23;101004.63;;;3.09;73.30
11643;BME280;5877;50.930;6.918;2023-03-15T08:42:14;101111.69;;;4.13;73.11
11643;BME280;5877;50.930;6.918;2023-03-15T08:47:06;101187.78;;;5.14;72.41
11643;BME280;5877;50.930;6.918;2023-03-15T08:51:58;101013.34;;;4.26;70.39
11643;BME280;5877;50.930;6.918;2023-03-15T08:56:50;101167.09;;;5.29;69.41
11643;BME280;5877;50.930;6.918;2023-03-15T09:01:41;101111.03;;;4.85;69.50
11643;BME280;5877;50.930;6.918;2023-03-15T09:06:35;101233.97;;;5.44;70.29
11643;BME280;5877;50.930;6.918;2023-03-15T09:11:27;101192.16;;;5.38;69.85
11643;BME280;5877;50.930;6.918;2023-03-15T09:16:19;101263.41;;;6.02;68.73
11643;BME280;5877;50.930;6.918;2023-03-15T09:21:10;101234.53;;;6.19;68.49
11643;BME280;5877;50.930;6.918;2023-03-15T09:26:02;101201.19;;;6.07;65.57
11643;BME280;5877;50.930;6.918;2023-03-15T09:30:54;101214.25;;;6.77;64.64
11643;BME280;5877;50.930;6.918;2023-03-15T09:35:50;101215.63;;;6.96;65.04
11643;BME280;5877;50.930;6.918;2023-03-15T09:40:43;101263.28;;;8.10;61.03
11643;BME280;5877;50.930;6.918;2023-03-15T09:50:50;101247.50;;;8.77;58.84
11643;BME280;5877;50.930;6.918;2023-03-15T09:55:43;101256.94;;;9.15;59.71
11643;BME280;5877;50.930;6.918;2023-03-15T10:00:48;101193.66;;;9.11;55.48
11643;BME280;5877;50.930;6.918;2023-03-15T10:05:48;101219.16;;;8.81;58.13
11643;BME280;5877;50.930;6.918;2023-03-15T10:10:55;101184.50;;;8.43;57.48
11643;BME280;5877;50.930;6.918;2023-03-15T10:16:10;101259.53;;;8.42;57.27
11643;BME280;5877;50.930;6.918;2023-03-15T10:21:15;101117.13;;;7.65;55.40
11643;BME280;5877;50.930;6.918;2023-03-15T10:26:10;101240.31;;;8.50;54.01
11643;BME280;5877;50.930;6.918;2023-03-15T10:31:12;101056.03;;;7.51;52.92
11643;BME280;5877;50.930;6.918;2023-03-15T10:36:21;101054.16;;;7.96;51.16
11643;BME280;5877;50.930;6.918;2023-03-15T10:41:26;101209.13;;;9.27;50.92
11643;BME280;5877;50.930;6.918;2023-03-15T10:46:23;101187.72;;;9.45;49.49
11643;BME280;5877;50.930;6.918;2023-03-15T10:51:19;101277.22;;;9.70;48.34
11643;BME280;5877;50.930;6.918;2023-03-15T10:56:20;101236.16;;;8.92;49.56
11643;BME280;5877;50.930;6.918;2023-03-15T11:01:23;101268.53;;;9.05;50.53
11643;BME280;5877;50.930;6.918;2023-03-15T11:06:25;101259.28;;;9.24;49.85
11643;BME280;5877;50.930;6.918;2023-03-15T11:11:17;101214.47;;;9.40;49.83
11643;BME280;5877;50.930;6.918;2023-03-15T11:21:07;101283.75;;;10.84;45.91
11643;BME280;5877;50.930;6.918;2023-03-15T11:26:01;101058.75;;;9.15;46.00
11643;BME280;5877;50.930;6.918;2023-03-15T11:30:54;101298.31;;;10.39;44.00
11643;BME280;5877;50.930;6.918;2023-03-15T11:35:47;101193.22;;;9.29;43.71
11643;BME280;5877;50.930;6.918;2023-03-15T11:40:43;101279.72;;;10.06;45.66
11643;BME280;5877;50.930;6.918;2023-03-15T11:45:42;101304.91;;;10.69;42.55
11643;BME280;5877;50.930;6.918;2023-03-15T11:50:55;101226.78;;;10.24;43.36
11643;BME280;5877;50.930;6.918;2023-03-15T11:55:49;101312.50;;;11.05;41.20
11643;BME280;5877;50.930;6.918;2023-03-15T12:00:49;101103.34;;;9.00;40.24
11643;BME280;5877;50.930;6.918;2023-03-15T12:10:54;101324.22;;;10.55;39.92
11643;BME280;5877;50.930;6.918;2023-03-15T12:15:47;101313.53;;;11.11;39.91
11643;BME280;5877;50.930;6.918;2023-03-15T12:20:41;101288.16;;;11.64;37.75
11643;BME280;5877;50.930;6.918;2023-03-15T12:25:50;101278.03;;;11.55;37.21
11643;BME280;5877;50.930;6.918;2023-03-15T12:30:52;101206.25;;;11.67;35.88
11643;BME280;5877;50.930;6.918;2023-03-15T12:35:46;101244.47;;;11.63;36.51
11643;BME280;5877;50.930;6.918;2023-03-15T12:40:53;101258.94;;;10.93;37.00
11643;BME280;5877;50.930;6.918;2023-03-15T12:45:46;101130.91;;;9.80;37.50
11643;BME280;5877;50.930;6.918;2023-03-15T12:50:50;101234.72;;;10.37;38.04
11643;BME280;5877;50.930;6.918;2023-03-15T12:55:43;101304.47;;;11.14;36.46
11643;BME280;5877;50.930;6.918;2023-03-15T13:00:36;101252.97;;;11.46;35.84
11643;BME280;5877;50.930;6.918;2023-03-15T13:21:18;101208.47;;;11.90;33.60
11643;BME280;5877;50.930;6.918;2023-03-15T13:31:29;101291.44;;;11.99;34.95
11643;BME280;5877;50.930;6.918;2023-03-15T13:36:24;101090.84;;;10.73;35.11
11643;BME280;5877;50.930;6.918;2023-03-15T13:41:29;101299.94;;;11.95;34.54
11643;BME280;5877;50.930;6.918;2023-03-15T13:46:23;101287.94;;;12.25;32.87
11643;BME280;5877;50.930;6.918;2023-03-15T13:56:19;101288.84;;;12.64;33.78
11643;BME280;5877;50.930;6.918;2023-03-15T14:01:13;101291.59;;;12.89;32.90
11643;BME280;5877;50.930;6.918;2023-03-15T14:06:05;101138.03;;;11.99;32.90
11643;BME280;5877;50.930;6.918;2023-03-15T14:15:49;101298.34;;;13.16;31.63
11643;BME280;5877;50.930;6.918;2023-03-15T14:20:51;101311.63;;;12.90;31.55
11643;BME280;5877;50.930;6.918;2023-03-15T14:25:50;100918.19;;;9.96;32.38
11643;BME280;5877;50.930;6.918;2023-03-15T14:30:50;101304.31;;;12.34;32.23
11643;BME280;5877;50.930;6.918;2023-03-15T14:35:43;101163.56;;;10.93;33.54
11643;BME280;5877;50.930;6.918;2023-03-15T14:40:37;101312.03;;;11.76;33.22
11643;BME280;5877;50.930;6.918;2023-03-15T14:45:30;101234.31;;;11.14;34.84
11643;BME280;5877;50.930;6.918;2023-03-15T14:50:24;101223.34;;;10.78;34.94
11643;BME280;5877;50.930;6.918;2023-03-15T14:55:19;101294.09;;;10.99;34.14
11643;BME280;5877;50.930;6.918;2023-03-15T15:00:13;101089.97;;;9.44;36.23
11643;BME280;5877;50.930;6.918;2023-03-15T15:05:34;101315.34;;;10.56;36.38
11643;BME280;5877;50.930;6.918;2023-03-15T15:10:25;101282.88;;;10.23;35.76
11643;BME280;5877;50.930;6.918;2023-03-15T15:15:21;101274.44;;;10.27;35.40
11643;BME280;5877;50.930;6.918;2023-03-15T15:20:14;101274.03;;;9.74;36.51
11643;BME280;5877;50.930;6.918;2023-03-15T15:25:12;101336.25;;;10.43;36.79
11643;BME280;5877;50.930;6.918;2023-03-15T15:30:08;101295.78;;;9.96;35.88
11643;BME280;5877;50.930;6.918;2023-03-15T15:35:07;101240.84;;;9.60;36.55
11643;BME280;5877;50.930;6.918;2023-03-15T15:39:59;100991.69;;;8.01;36.87
11643;BME280;5877;50.930;6.918;2023-03-15T15:44:51;101301.97;;;9.89;36.17
11643;BME280;5877;50.930;6.918;2023-03-15T15:49:42;101316.91;;;9.88;36.56
11643;BME280;5877;50.930;6.918;2023-03-15T15:54:34;101315.66;;;9.41;37.19
11643;BME280;5877;50.930;6.918;2023-03-15T15:59:26;101260.72;;;8.91;37.49
11643;BME280;5877;50.930;6.918;2023-03-15T16:04:18;101137.63;;;7.97;37.18
11643;BME280;5877;50.930;6.918;2023-03-15T16:09:10;101195.94;;;8.27;36.61
11643;BME280;5877;50.930;6.918;2023-03-15T16:14:03;101314.25;;;8.88;36.82
11643;BME280;5877;50.930;6.918;2023-03-15T16:18:55;101171.50;;;7.91;37.31
11643;BME280;5877;50.930;6.918;2023-03-15T16:23:52;101266.94;;;8.39;37.32
11643;BME280;5877;50.930;6.918;2023-03-15T16:28:45;101021.97;;;6.63;37.86
11643;BME280;5877;50.930;6.918;2023-03-15T16:33:38;101183.78;;;7.75;37.01
11643;BME280;5877;50.930;6.918;2023-03-15T16:38:30;101318.03;;;8.27;37.07
11643;BME280;5877;50.930;6.918;2023-03-15T16:43:22;101059.06;;;6.27;37.25
11643;BME280;5877;50.930;6.918;2023-03-15T16:48:14;101222.69;;;7.10;39.20
11643;BME280;5877;50.930;6.918;2023-03-15T16:53:08;101332.38;;;7.56;39.33
11643;BME280;5877;50.930;6.918;2023-03-15T16:58:03;101138.97;;;6.12;39.59
11643;BME280;5877;50.930;6.918;2023-03-15T17:03:00;101315.72;;;7.03;40.75
11643;BME280;5877;50.930;6.918;2023-03-15T17:07:53;101349.81;;;7.01;41.54
11643;BME280;5877;50.930;6.918;2023-03-15T17:12:45;101279.78;;;6.35;41.85
11643;BME280;5877;50.930;6.918;2023-03-15T17:17:37;101290.59;;;6.07;42.22
11643;BME280;5877;50.930;6.918;2023-03-15T17:22:29;101019.03;;;4.38;41.37
11643;BME280;5877;50.930;6.918;2023-03-15T17:27:26;101354.59;;;6.26;42.31
11643;BME280;5877;50.930;6.918;2023-03-15T17:32:20;101146.63;;;4.77;43.80
11643;BME280;5877;50.930;6.918;2023-03-15T17:37:16;101315.66;;;5.68;43.31
11643;BME280;5877;50.930;6.918;2023-03-15T17:42:11;101370.06;;;5.87;45.32
11643;BME280;5877;50.930;6.918;2023-03-15T17:47:04;101298.06;;;5.29;45.41
11643;BME280;5877;50.930;6.918;2023-03-15T17:51:59;101306.66;;;5.30;45.29
11643;BME280;5877;50.930;6.918;2023-03-15T17:56:51;101372.47;;;5.64;46.80
11643;BME280;5877;50.930;6.918;2023-03-15T18:01:43;101273.13;;;4.94;48.38
11643;BME280;5877;50.930;6.918;2023-03-15T18:06:37;101382.06;;;5.64;48.75
11643;BME280;5877;50.930;6.918;2023-03-15T18:11:31;101249.66;;;4.78;50.13
11643;BME280;5877;50.930;6.918;2023-03-15T18:16:24;101382.34;;;5.44;50.75
11643;BME280;5877;50.930;6.918;2023-03-15T18:21:19;101280.22;;;4.76;50.38
11643;BME280;5877;50.930;6.918;2023-03-15T18:26:11;101103.84;;;3.63;50.95
11643;BME280;5877;50.930;6.918;2023-03-15T18:31:03;101328.03;;;4.83;51.27
11643;BME280;5877;50.930;6.918;2023-03-15T18:36:01;101315.16;;;4.73;51.49
11643;BME280;5877;50.930;6.918;2023-03-15T18:40:53;101231.34;;;4.11;52.21
11643;BME280;5877;50.930;6.918;2023-03-15T18:45:45;101411.25;;;5.25;52.63
11643;BME280;5877;50.930;6.918;2023-03-15T18:50:37;101406.72;;;5.27;52.61
11643;BME280;5877;50.930;6.918;2023-03-15T18:55:29;101409.16;;;5.29;52.35
11643;BME280;5877;50.930;6.918;2023-03-15T19:00:24;101299.34;;;4.33;53.02
11643;BME280;5877;50.930;6.918;2023-03-15T19:05:17;101395.56;;;5.01;53.94
11643;BME280;5877;50.930;6.918;2023-03-15T19:10:11;101263.47;;;4.10;53.65
11643;BME280;5877;50.930;6.918;2023-03-15T19:15:04;101428.09;;;5.05;54.37
11643;BME280;5877;50.930;6.918;2023-03-15T19:19:56;101383.25;;;4.77;55.05
11643;BME280;5877;50.930;6.918;2023-03-15T19:24:48;101363.03;;;4.63;55.11
11643;BME280;5877;50.930;6.918;2023-03-15T19:29:39;101283.09;;;4.05;55.54
11643;BME280;5877;50.930;6.918;2023-03-15T19:34:31;101403.66;;;4.89;55.58
11643;BME280;5877;50.930;6.918;2023-03-15T19:39:23;101260.94;;;3.92;55.39
11643;BME280;5877;50.930;6.918;2023-03-15T19:44:15;101350.75;;;4.47;55.43
11643;BME280;5877;50.930;6.918;2023-03-15T19:49:06;101214.06;;;3.50;55.54
11643;BME280;5877;50.930;6.918;2023-03-15T19:53:58;101315.28;;;4.12;56.87
11643;BME280;5877;50.930;6.918;2023-03-15T19:58:50;101363.66;;;4.31;57.18
11643;BME280;5877;50.930;6.918;2023-03-15T20:03:42;101377.44;;;4.31;57.68
11643;BME280;5877;50.930;6.918;2023-03-15T20:08:34;101431.91;;;4.59;57.06
11643;BME280;5877;50.930;6.918;2023-03-15T20:13:26;101401.34;;;4.35;57.06
11643;BME280;5877;50.930;6.918;2023-03-15T20:18:18;101300.28;;;3.62;56.86
11643;BME280;5877;50.930;6.918;2023-03-15T20:23:10;101400.41;;;4.18;57.87
11643;BME280;5877;50.930;6.918;2023-03-15T20:28:01;101434.91;;;4.28;58.33
11643;BME280;5877;50.930;6.918;2023-03-15T20:32:54;101433.53;;;4.16;59.46
11643;BME280;5877;50.930;6.918;2023-03-15T20:37:47;101355.75;;;3.43;59.60
11643;BME280;5877;50.930;6.918;2023-03-15T20:42:39;101421.72;;;3.86;60.20
11643;BME280;5877;50.930;6.918;2023-03-15T20:47:32;101379.41;;;3.40;60.03
11643;BME280;5877;50.930;6.918;2023-03-15T20:52:24;101410.44;;;3.77;60.47
11643;BME280;5877;50.930;6.918;2023-03-15T20:57:16;101404.13;;;3.62;60.82
11643;BME280;5877;50.930;6.918;2023-03-15T21:02:09;101431.31;;;3.58;61.22
11643;BME280;5877;50.930;6.918;2023-03-15T21:07:01;101268.91;;;2.57;61.20
11643;BME280;5877;50.930;6.918;2023-03-15T21:11:54;101410.53;;;3.40;61.39
11643;BME280;5877;50.930;6.918;2023-03-15T21:16:47;101320.06;;;2.82;62.24
11643;BME280;5877;50.930;6.918;2023-03-15T21:21:39;101225.31;;;2.15;62.85
11643;BME280;5877;50.930;6.918;2023-03-15T21:26:33;101431.19;;;3.32;63.27
11643;BME280;5877;50.930;6.918;2023-03-15T21:31:25;101270.22;;;2.34;63.44
11643;BME280;5877;50.930;6.918;2023-03-15T21:36:17;101419.50;;;3.18;63.92
11643;BME280;5877;50.930;6.918;2023-03-15T21:41:09;101347.53;;;2.66;64.41
11643;BME280;5877;50.930;6.918;2023-03-15T21:46:11;101414.38;;;3.09;64.50
11643;BME280;5877;50.930;6.918;2023-03-15T21:51:04;101291.94;;;2.23;65.43
11643;BME280;5877;50.930;6.918;2023-03-15T21:55:57;101409.38;;;2.98;65.43
11643;BME280;5877;50.930;6.918;2023-03-15T22:00:58;101208.69;;;1.61;65.52
11643;BME280;5877;50.930;6.918;2023-03-15T22:05:50;101403.13;;;2.90;65.61
11643;BME280;5877;50.930;6.918;2023-03-15T22:10:42;101334.72;;;2.37;66.04
11643;BME280;5877;50.930;6.918;2023-03-15T22:15:34;101355.09;;;2.59;65.79
11643;BME280;5877;50.930;6.918;2023-03-15T22:20:27;101357.38;;;2.62;65.31
11643;BME280;5877;50.930;6.918;2023-03-15T22:25:19;101365.97;;;2.63;65.31
11643;BME280;5877;50.930;6.918;2023-03-15T22:30:14;101258.88;;;1.98;65.70
11643;BME280;5877;50.930;6.918;2023-03-15T22:35:06;101341.25;;;2.41;65.58
11643;BME280;5877;50.930;6.918;2023-03-15T22:39:58;101320.03;;;2.08;65.82
11643;BME280;5877;50.930;6.918;2023-03-15T22:44:50;101292.56;;;1.88;66.41
11643;BME280;5877;50.930;6.918;2023-03-15T22:49:42;101292.94;;;1.93;66.23
11643;BME280;5877;50.930;6.918;2023-03-15T22:54:34;101306.31;;;1.88;66.73
11643;BME280;5877;50.930;6.918;2023-03-15T22:59:26;101217.28;;;1.33;66.78
11643;BME280;5877;50.930;6.918;2023-03-15T23:04:19;101302.38;;;1.75;67.45
11643;BME280;5877;50.930;6.918;2023-03-15T23:09:11;101281.00;;;1.53;67.72
11643;BME280;5877;50.930;6.918;2023-03-15T23:14:03;101321.56;;;1.72;68.21
11643;BME280;5877;50.930;6.918;2023-03-15T23:18:54;101168.56;;;0.71;68.46
11643;BME280;5877;50.930;6.918;2023-03-15T23:23:46;101288.34;;;1.39;69.09
11643;BME280;5877;50.930;6.918;2023-03-15T23:28:38;101117.09;;;0.29;69.14
11643;BME280;5877;50.930;6.918;2023-03-15T23:33:30;101312.31;;;1.50;69.18
11643;BME280;5877;50.930;6.918;2023-03-15T23:38:24;101292.56;;;1.30;69.13
11643;BME280;5877;50.930;6.918;2023-03-15T23:43:16;101334.09;;;1.48;69.43
11643;BME280;5877;50.930;6.918;2023-03-15T23:48:07;101273.34;;;1.04;70.03
11643;BME280;5877;50.930;6.918;2023-03-15T23:52:59;101208.50;;;0.57;69.70
11643;BME280;5877;50.930;6.918;2023-03-15T23:57:51;101339.66;;;1.43;70.26
